sensor_id;sensor_type;location;lat;lon;timestamp;pressure;altitude;pressure_sealevel;temperature;humidity
14818;BME280;7500;57.698;11.986;2023-02-12T00:02:03;103091.19;;;6.51;100.00
14818;BME280;7500;57.698;11.986;2023-02-12T00:04:30;103086.78;;;6.51;100.00
14818;BME280;7500;57.698;11.986;2023-02-12T00:06:58;103096.44;;;6.51;100.00
14818;BME280;7500;57.698;11.986;2023-02-12T00:09:25;103092.03;;;6.48;100.00
14818;BME280;7500;57.698;11.986;2023-02-12T00:11:52;103097.28;;;6.48;100.00
14818;BME280;7500;57.698;11.986;2023-02-12T00:14:19;103097.28;;;6.51;100.00
14818;BME280;7500;57.698;11.986;2023-02-12T00:16:46;103099.94;;;6.53;100.00
14818;BME280;7500;57.698;11.986;2023-02-12T00:19:13;103089.44;;;6.50;100.00
14818;BME280;7500;57.698;11.986;2023-02-12T00:21:40;103092.91;;;6.47;100.00
14818;BME280;7500;57.698;11.986;2023-02-12T00:24:08;103086.78;;;6.36;100.00
14818;BME280;7500;57.698;11.986;2023-02-12T00:26:35;103093.75;;;6.31;100.00
14818;BME280;7500;57.698;11.986;2023-02-12T00:29:02;103092.84;;;6.31;100.00
14818;BME280;7500;57.698;11.986;2023-02-12T00:31:30;103070.06;;;6.13;100.00
14818;BME280;7500;57.698;11.986;2023-02-12T00:33:58;103103.34;;;6.25;100.00
14818;BME280;7500;57.698;11.986;2023-02-12T00:36:28;103098.97;;;6.28;100.00
14818;BME280;7500;57.698;11.986;2023-02-12T00:38:56;103087.59;;;6.23;100.00
14818;BME280;7500;57.698;11.986;2023-02-12T00:41:25;103092.84;;;6.19;100.00
14818;BME280;7500;57.698;11.986;2023-02-12T00:43:52;103103.31;;;6.20;100.00
14818;BME280;7500;57.698;11.986;2023-02-12T00:46:19;103099.81;;;6.17;100.00
14818;BME280;7500;57.698;11.986;2023-02-12T00:48:46;103090.16;;;6.14;100.00
14818;BME280;7500;57.698;11.986;2023-02-12T00:51:13;103091.94;;;6.17;100.00
14818;BME280;7500;57.698;11.986;2023-02-12T00:53:40;103088.47;;;6.22;100.00
14818;BME280;7500;57.698;11.986;2023-02-12T00:56:07;103097.19;;;6.18;100.00
14818;BME280;7500;57.698;11.986;2023-02-12T00:58:35;103093.72;;;6.22;100.00
14818;BME280;7500;57.698;11.986;2023-02-12T01:01:02;103084.09;;;6.23;100.00
14818;BME280;7500;57.698;11.986;2023-02-12T01:03:29;103090.22;;;6.26;100.00
14818;BME280;7500;57.698;11.986;2023-02-12T01:05:56;103098.09;;;6.26;100.00
14818;BME280;7500;57.698;11.986;2023-02-12T01:08:23;103091.97;;;6.29;100.00
14818;BME280;7500;57.698;11.986;2023-02-12T01:10:54;103085.88;;;6.34;100.00
14818;BME280;7500;57.698;11.986;2023-02-12T01:13:22;103080.63;;;6.28;100.00
14818;BME280;7500;57.698;11.986;2023-02-12T01:16:00;103092.00;;;6.33;100.00
14818;BME280;7500;57.698;11.986;2023-02-12T01:18:27;103102.50;;;6.36;100.00
14818;BME280;7500;57.698;11.986;2023-02-12T01:20:54;103096.41;;;6.40;100.00
14818;BME280;7500;57.698;11.986;2023-02-12T01:23:23;103091.13;;;6.39;100.00
14818;BME280;7500;57.698;11.986;2023-02-12T01:25:50;103063.13;;;6.24;100.00
14818;BME280;7500;57.698;11.986;2023-02-12T01:28:17;103097.25;;;6.41;100.00
14818;BME280;7500;57.698;11.986;2023-02-12T01:30:43;103096.41;;;6.40;100.00
14818;BME280;7500;57.698;11.986;2023-02-12T01:33:12;103092.88;;;6.32;100.00
14818;BME280;7500;57.698;11.986;2023-02-12T01:35:39;103098.94;;;6.19;100.00
14818;BME280;7500;57.698;11.986;2023-02-12T01:38:05;103098.97;;;6.25;100.00
14818;BME280;7500;57.698;11.986;2023-02-12T01:40:32;103079.72;;;6.20;100.00
14818;BME280;7500;57.698;11.986;2023-02-12T01:43:01;103101.63;;;6.37;100.00
14818;BME280;7500;57.698;11.986;2023-02-12T01:45:50;103091.97;;;6.29;100.00
14818;BME280;7500;57.698;11.986;2023-02-12T01:48:23;103087.63;;;6.28;100.00
14818;BME280;7500;57.698;11.986;2023-02-12T01:50:53;103092.88;;;6.28;100.00
14818;BME280;7500;57.698;11.986;2023-02-12T01:53:21;103098.97;;;6.28;100.00
14818;BME280;7500;57.698;11.986;2023-02-12T01:55:54;103100.69;;;6.20;100.00
14818;BME280;7500;57.698;11.986;2023-02-12T01:58:24;103077.06;;;6.13;100.00
14818;BME280;7500;57.698;11.986;2023-02-12T02:00:52;103091.09;;;6.28;100.00
14818;BME280;7500;57.698;11.986;2023-02-12T02:03:20;103084.13;;;6.32;100.00
14818;BME280;7500;57.698;11.986;2023-02-12T02:05:52;103093.75;;;6.36;100.00
14818;BME280;7500;57.698;11.986;2023-02-12T02:08:21;103089.38;;;6.33;100.00
14818;BME280;7500;57.698;11.986;2023-02-12T02:10:48;103088.50;;;6.31;100.00
14818;BME280;7500;57.698;11.986;2023-02-12T02:13:15;103096.38;;;6.34;100.00
14818;BME280;7500;57.698;11.986;2023-02-12T02:16:02;103098.97;;;6.25;100.00
14818;BME280;7500;57.698;11.986;2023-02-12T02:18:37;103093.72;;;6.28;100.00
14818;BME280;7500;57.698;11.986;2023-02-12T02:27:31;103093.72;;;6.33;100.00
14818;BME280;7500;57.698;11.986;2023-02-12T02:32:59;103086.75;;;6.30;100.00
14818;BME280;7500;57.698;11.986;2023-02-12T02:35:31;103062.22;;;6.16;100.00
14818;BME280;7500;57.698;11.986;2023-02-12T02:38:10;103092.06;;;6.50;100.00
14818;BME280;7500;57.698;11.986;2023-02-12T02:40:50;103090.28;;;6.53;100.00
14818;BME280;7500;57.698;11.986;2023-02-12T02:43:21;103099.06;;;6.64;100.00
14818;BME280;7500;57.698;11.986;2023-02-12T02:45:52;103093.81;;;6.68;100.00
14818;BME280;7500;57.698;11.986;2023-02-12T02:48:24;103096.50;;;6.79;100.00
14818;BME280;7500;57.698;11.986;2023-02-12T02:50:55;103102.63;;;6.78;100.00
14818;BME280;7500;57.698;11.986;2023-02-12T02:53:29;103121.84;;;6.83;100.00
14818;BME280;7500;57.698;11.986;2023-02-12T02:55:59;103107.00;;;6.92;100.00
14818;BME280;7500;57.698;11.986;2023-02-12T02:58:31;103105.25;;;6.96;100.00
14818;BME280;7500;57.698;11.986;2023-02-12T03:01:05;103109.63;;;7.00;100.00
14818;BME280;7500;57.698;11.986;2023-02-12T03:03:39;103112.25;;;7.03;100.00
14818;BME280;7500;57.698;11.986;2023-02-12T03:06:10;103104.38;;;7.07;100.00
14818;BME280;7500;57.698;11.986;2023-02-12T03:08:41;103105.25;;;7.15;100.00
14818;BME280;7500;57.698;11.986;2023-02-12T03:11:13;103092.13;;;7.18;100.00
14818;BME280;7500;57.698;11.986;2023-02-12T03:13:44;103100.00;;;7.21;100.00
14818;BME280;7500;57.698;11.986;2023-02-12T03:16:17;103104.38;;;7.24;100.00
14818;BME280;7500;57.698;11.986;2023-02-12T03:18:50;103108.75;;;7.28;100.00
14818;BME280;7500;57.698;11.986;2023-02-12T03:21:23;103109.63;;;7.30;100.00
14818;BME280;7500;57.698;11.986;2023-02-12T03:23:56;103100.88;;;7.29;100.00
14818;BME280;7500;57.698;11.986;2023-02-12T03:26:33;103099.97;;;7.33;100.00
14818;BME280;7500;57.698;11.986;2023-02-12T03:29:03;103102.63;;;7.32;100.00
14818;BME280;7500;57.698;11.986;2023-02-12T03:31:36;103107.03;;;7.25;100.00
14818;BME280;7500;57.698;11.986;2023-02-12T03:34:12;103103.50;;;7.26;100.00
14818;BME280;7500;57.698;11.986;2023-02-12T03:36:47;103118.41;;;7.27;100.00
14818;BME280;7500;57.698;11.986;2023-02-12T03:39:24;103124.53;;;7.25;100.00
14818;BME280;7500;57.698;11.986;2023-02-12T03:42:01;103129.78;;;7.29;100.00
14818;BME280;7500;57.698;11.986;2023-02-12T03:44:46;103137.66;;;7.26;100.00
14818;BME280;7500;57.698;11.986;2023-02-12T03:47:28;103143.78;;;7.30;100.00
14818;BME280;7500;57.698;11.986;2023-02-12T03:50:09;103141.16;;;7.31;100.00
14818;BME280;7500;57.698;11.986;2023-02-12T03:52:38;103140.28;;;7.28;100.00
14818;BME280;7500;57.698;11.986;2023-02-12T03:55:06;103140.28;;;7.20;100.00
14818;BME280;7500;57.698;11.986;2023-02-12T03:57:38;103139.41;;;7.23;100.00
14818;BME280;7500;57.698;11.986;2023-02-12T04:00:10;103143.81;;;7.25;100.00
14818;BME280;7500;57.698;11.986;2023-02-12T04:02:39;103147.28;;;7.23;100.00
14818;BME280;7500;57.698;11.986;2023-02-12T04:05:07;103161.31;;;7.25;100.00
14818;BME280;7500;57.698;11.986;2023-02-12T04:07:35;103154.28;;;7.24;100.00
14818;BME280;7500;57.698;11.986;2023-02-12T04:10:03;103155.16;;;7.23;100.00
14818;BME280;7500;57.698;11.986;2023-02-12T04:12:34;103150.78;;;7.32;100.00
14818;BME280;7500;57.698;11.986;2023-02-12T04:15:19;103154.31;;;7.36;100.00
14818;BME280;7500;57.698;11.986;2023-02-12T04:17:58;103142.91;;;7.40;100.00
14818;BME280;7500;57.698;11.986;2023-02-12T04:20:36;103136.78;;;7.33;100.00
14818;BME280;7500;57.698;11.986;2023-02-12T04:23:16;103135.91;;;7.33;100.00
14818;BME280;7500;57.698;11.986;2023-02-12T04:25:52;103138.53;;;7.37;100.00
14818;BME280;7500;57.698;11.986;2023-02-12T04:28:28;103148.19;;;7.43;100.00
14818;BME280;7500;57.698;11.986;2023-02-12T04:31:03;103141.16;;;7.39;100.00
14818;BME280;7500;57.698;11.986;2023-02-12T04:33:38;103143.78;;;7.43;100.00
14818;BME280;7500;57.698;11.986;2023-02-12T04:36:12;103149.03;;;7.46;100.00
14818;BME280;7500;57.698;11.986;2023-02-12T04:38:44;103143.78;;;7.43;100.00
14818;BME280;7500;57.698;11.986;2023-02-12T04:41:12;103141.16;;;7.42;100.00
14818;BME280;7500;57.698;11.986;2023-02-12T04:43:39;103136.78;;;7.42;100.00
14818;BME280;7500;57.698;11.986;2023-02-12T04:46:07;103142.91;;;7.49;100.00
14818;BME280;7500;57.698;11.986;2023-02-12T04:48:43;103148.16;;;7.49;100.00
14818;BME280;7500;57.698;11.986;2023-02-12T04:51:13;103153.41;;;7.55;100.00
14818;BME280;7500;57.698;11.986;2023-02-12T04:53:40;103162.16;;;7.54;100.00
14818;BME280;7500;57.698;11.986;2023-02-12T04:56:09;103158.69;;;7.50;100.00
14818;BME280;7500;57.698;11.986;2023-02-12T04:58:37;103155.19;;;7.54;100.00
14818;BME280;7500;57.698;11.986;2023-02-12T05:01:04;103163.94;;;7.58;100.00
14818;BME280;7500;57.698;11.986;2023-02-12T05:03:31;103153.41;;;7.52;100.00
14818;BME280;7500;57.698;11.986;2023-02-12T05:06:02;103156.06;;;7.50;100.00
14818;BME280;7500;57.698;11.986;2023-02-12T05:08:29;103162.19;;;7.55;100.00
14818;BME280;7500;57.698;11.986;2023-02-12T05:10:56;103156.91;;;7.57;100.00
14818;BME280;7500;57.698;11.986;2023-02-12T05:13:23;103160.44;;;7.57;100.00
14818;BME280;7500;57.698;11.986;2023-02-12T05:15:50;103157.81;;;7.63;100.00
14818;BME280;7500;57.698;11.986;2023-02-12T05:18:17;103171.78;;;7.65;100.00
14818;BME280;7500;57.698;11.986;2023-02-12T05:20:44;103152.50;;;7.69;100.00
14818;BME280;7500;57.698;11.986;2023-02-12T05:23:12;103151.66;;;7.72;100.00
14818;BME280;7500;57.698;11.986;2023-02-12T05:25:39;103140.22;;;7.74;100.00
14818;BME280;7500;57.698;11.986;2023-02-12T05:28:05;103148.13;;;7.77;100.00
14818;BME280;7500;57.698;11.986;2023-02-12T05:30:32;103136.72;;;7.72;100.00
14818;BME280;7500;57.698;11.986;2023-02-12T05:32:59;103133.22;;;7.70;100.00
14818;BME280;7500;57.698;11.986;2023-02-12T05:35:26;103138.47;;;7.73;100.00
14818;BME280;7500;57.698;11.986;2023-02-12T05:37:53;103130.63;;;7.75;100.00
14818;BME280;7500;57.698;11.986;2023-02-12T05:40:21;103123.59;;;7.72;100.00
14818;BME280;7500;57.698;11.986;2023-02-12T05:42:48;103117.47;;;7.69;100.00
14818;BME280;7500;57.698;11.986;2023-02-12T05:45:15;103118.34;;;7.68;100.00
14818;BME280;7500;57.698;11.986;2023-02-12T05:47:42;103117.44;;;7.70;100.00
14818;BME280;7500;57.698;11.986;2023-02-12T05:50:10;103120.09;;;7.72;100.00
14818;BME280;7500;57.698;11.986;2023-02-12T05:52:36;103124.47;;;7.74;100.00
14818;BME280;7500;57.698;11.986;2023-02-12T05:55:04;103116.56;;;7.77;100.00
14818;BME280;7500;57.698;11.986;2023-02-12T05:57:32;103115.72;;;7.77;100.00
14818;BME280;7500;57.698;11.986;2023-02-12T06:00:00;103112.19;;;7.79;100.00
14818;BME280;7500;57.698;11.986;2023-02-12T06:02:27;103109.56;;;7.79;100.00
14818;BME280;7500;57.698;11.986;2023-02-12T06:04:54;103115.66;;;7.82;100.00
14818;BME280;7500;57.698;11.986;2023-02-12T06:07:21;103122.69;;;7.85;100.00
14818;BME280;7500;57.698;11.986;2023-02-12T06:09:48;103123.56;;;7.85;100.00
14818;BME280;7500;57.698;11.986;2023-02-12T06:12:15;103121.84;;;7.79;100.00
14818;BME280;7500;57.698;11.986;2023-02-12T06:14:43;103120.09;;;7.81;100.00
14818;BME280;7500;57.698;11.986;2023-02-12T06:17:10;103122.69;;;7.82;100.00
14818;BME280;7500;57.698;11.986;2023-02-12T06:19:37;103126.22;;;7.80;100.00
14818;BME280;7500;57.698;11.986;2023-02-12T06:22:04;103141.13;;;7.81;100.00
14818;BME280;7500;57.698;11.986;2023-02-12T06:24:31;103141.09;;;7.83;100.00
14818;BME280;7500;57.698;11.986;2023-02-12T06:26:58;103131.47;;;7.78;100.00
14818;BME280;7500;57.698;11.986;2023-02-12T06:29:25;103144.63;;;7.81;100.00
14818;BME280;7500;57.698;11.986;2023-02-12T06:31:53;103132.31;;;7.84;100.00
14818;BME280;7500;57.698;11.986;2023-02-12T06:34:20;103144.59;;;7.88;100.00
14818;BME280;7500;57.698;11.986;2023-02-12T06:36:47;103133.22;;;7.79;100.00
14818;BME280;7500;57.698;11.986;2023-02-12T06:39:15;103151.59;;;7.83;100.00
14818;BME280;7500;57.698;11.986;2023-02-12T06:41:43;103130.63;;;7.72;100.00
14818;BME280;7500;57.698;11.986;2023-02-12T06:44:10;103141.09;;;7.83;100.00
14818;BME280;7500;57.698;11.986;2023-02-12T06:46:37;103148.97;;;7.83;100.00
14818;BME280;7500;57.698;11.986;2023-02-12T06:49:06;103146.38;;;7.79;100.00
14818;BME280;7500;57.698;11.986;2023-02-12T06:51:33;103151.63;;;7.79;100.00
14818;BME280;7500;57.698;11.986;2023-02-12T06:54:00;103163.03;;;7.75;100.00
14818;BME280;7500;57.698;11.986;2023-02-12T06:56:27;103156.00;;;7.71;100.00
14818;BME280;7500;57.698;11.986;2023-02-12T06:58:56;103152.50;;;7.75;100.00
14818;BME280;7500;57.698;11.986;2023-02-12T07:01:25;103150.78;;;7.76;100.00
14818;BME280;7500;57.698;11.986;2023-02-12T07:03:55;103149.00;;;7.73;100.00
14818;BME280;7500;57.698;11.986;2023-02-12T07:06:24;103165.66;;;7.74;100.00
14818;BME280;7500;57.698;11.986;2023-02-12T07:08:51;103164.78;;;7.73;100.00
14818;BME280;7500;57.698;11.986;2023-02-12T07:11:22;103170.06;;;7.78;100.00
14818;BME280;7500;57.698;11.986;2023-02-12T07:13:49;103174.44;;;7.76;100.00
14818;BME280;7500;57.698;11.986;2023-02-12T07:16:16;103173.56;;;7.77;100.00
14818;BME280;7500;57.698;11.986;2023-02-12T07:18:43;103168.28;;;7.78;100.00
14818;BME280;7500;57.698;11.986;2023-02-12T07:21:11;103165.66;;;7.75;100.00
14818;BME280;7500;57.698;11.986;2023-02-12T07:23:40;103163.91;;;7.70;100.00
14818;BME280;7500;57.698;11.986;2023-02-12T07:26:10;103160.41;;;7.69;100.00
14818;BME280;7500;57.698;11.986;2023-02-12T07:28:37;103163.03;;;7.65;100.00
14818;BME280;7500;57.698;11.986;2023-02-12T07:31:09;103157.78;;;7.65;100.00
14818;BME280;7500;57.698;11.986;2023-02-12T07:33:36;103158.66;;;7.64;100.00
14818;BME280;7500;57.698;11.986;2023-02-12T07:36:06;103158.66;;;7.70;100.00
14818;BME280;7500;57.698;11.986;2023-02-12T07:38:33;103163.91;;;7.73;100.00
14818;BME280;7500;57.698;11.986;2023-02-12T07:41:10;103126.25;;;7.56;100.00
14818;BME280;7500;57.698;11.986;2023-02-12T07:43:38;103160.41;;;7.74;100.00
14818;BME280;7500;57.698;11.986;2023-02-12T07:46:12;103151.63;;;7.73;100.00
14818;BME280;7500;57.698;11.986;2023-02-12T07:48:41;103150.78;;;7.76;100.00
14818;BME280;7500;57.698;11.986;2023-02-12T07:51:09;103152.50;;;7.78;100.00
14818;BME280;7500;57.698;11.986;2023-02-12T07:53:37;103159.53;;;7.81;100.00
14818;BME280;7500;57.698;11.986;2023-02-12T07:56:11;103161.25;;;7.87;100.00
14818;BME280;7500;57.698;11.986;2023-02-12T07:58:39;103169.13;;;7.90;100.00
14818;BME280;7500;57.698;11.986;2023-02-12T08:01:15;103171.78;;;7.89;100.00
14818;BME280;7500;57.698;11.986;2023-02-12T08:03:43;103165.63;;;7.94;100.00
14818;BME280;7500;57.698;11.986;2023-02-12T08:06:12;103144.59;;;7.82;100.00
14818;BME280;7500;57.698;11.986;2023-02-12T08:08:39;103162.97;;;7.97;100.00
14818;BME280;7500;57.698;11.986;2023-02-12T08:11:09;103158.59;;;8.05;100.00
14818;BME280;7500;57.698;11.986;2023-02-12T08:13:37;103151.56;;;8.07;100.00
14818;BME280;7500;57.698;11.986;2023-02-12T08:16:05;103154.19;;;8.06;100.00
14818;BME280;7500;57.698;11.986;2023-02-12T08:18:33;103147.16;;;8.12;100.00
14818;BME280;7500;57.698;11.986;2023-02-12T08:21:01;103154.16;;;8.15;100.00
14818;BME280;7500;57.698;11.986;2023-02-12T08:23:29;103144.53;;;8.12;100.00
14818;BME280;7500;57.698;11.986;2023-02-12T08:26:07;103134.00;;;8.11;100.00
14818;BME280;7500;57.698;11.986;2023-02-12T08:28:37;103127.88;;;8.16;100.00
14818;BME280;7500;57.698;11.986;2023-02-12T08:31:06;103135.75;;;8.19;100.00
14818;BME280;7500;57.698;11.986;2023-02-12T08:33:33;103130.47;;;8.22;100.00
14818;BME280;7500;57.698;11.986;2023-02-12T08:36:02;103125.22;;;8.19;100.00
14818;BME280;7500;57.698;11.986;2023-02-12T08:38:31;103144.47;;;8.36;100.00
14818;BME280;7500;57.698;11.986;2023-02-12T08:41:00;103147.09;;;8.36;100.00
14818;BME280;7500;57.698;11.986;2023-02-12T08:43:28;103135.69;;;8.34;100.00
14818;BME280;7500;57.698;11.986;2023-02-12T08:46:00;103141.81;;;8.39;100.00
14818;BME280;7500;57.698;11.986;2023-02-12T08:48:27;103135.69;;;8.37;100.00
14818;BME280;7500;57.698;11.986;2023-02-12T08:50:54;103136.53;;;8.41;100.00
14818;BME280;7500;57.698;11.986;2023-02-12T08:53:20;103126.00;;;8.41;100.00
14818;BME280;7500;57.698;11.986;2023-02-12T08:55:48;103136.53;;;8.47;100.00
14818;BME280;7500;57.698;11.986;2023-02-12T08:58:15;103135.59;;;8.52;100.00
14818;BME280;7500;57.698;11.986;2023-02-12T09:00:42;103134.72;;;8.53;100.00
14818;BME280;7500;57.698;11.986;2023-02-12T09:03:10;103141.78;;;8.50;100.00
14818;BME280;7500;57.698;11.986;2023-02-12T09:05:38;103150.44;;;8.70;100.00
14818;BME280;7500;57.698;11.986;2023-02-12T09:08:05;103163.59;;;8.74;100.00
14818;BME280;7500;57.698;11.986;2023-02-12T09:10:32;103154.78;;;8.81;100.00
14818;BME280;7500;57.698;11.986;2023-02-12T09:12:59;103159.97;;;8.95;100.00
14818;BME280;7500;57.698;11.986;2023-02-12T09:15:25;103159.06;;;8.96;100.00
14818;BME280;7500;57.698;11.986;2023-02-12T09:17:52;103155.47;;;9.07;100.00
14818;BME280;7500;57.698;11.986;2023-02-12T09:20:21;103157.25;;;9.05;100.00
14818;BME280;7500;57.698;11.986;2023-02-12T09:22:47;103166.03;;;9.04;100.00
14818;BME280;7500;57.698;11.986;2023-02-12T09:25:14;103165.97;;;9.13;100.00
14818;BME280;7500;57.698;11.986;2023-02-12T09:27:41;103163.28;;;9.19;100.00
14818;BME280;7500;57.698;11.986;2023-02-12T09:30:09;103166.78;;;9.19;100.00
14818;BME280;7500;57.698;11.986;2023-02-12T09:32:36;103159.84;;;9.11;100.00
14818;BME280;7500;57.698;11.986;2023-02-12T09:35:03;103101.19;;;8.81;100.00
14818;BME280;7500;57.698;11.986;2023-02-12T09:37:32;103163.28;;;9.19;100.00
14818;BME280;7500;57.698;11.986;2023-02-12T09:39:59;103157.19;;;9.09;100.00
14818;BME280;7500;57.698;11.986;2023-02-12T09:42:39;103164.25;;;9.04;100.00
14818;BME280;7500;57.698;11.986;2023-02-12T09:45:15;103166.88;;;9.12;100.00
14818;BME280;7500;57.698;11.986;2023-02-12T09:47:46;103160.72;;;9.13;100.00
14818;BME280;7500;57.698;11.986;2023-02-12T09:50:28;103163.31;;;9.16;100.00
14818;BME280;7500;57.698;11.986;2023-02-12T09:52:59;103166.78;;;9.22;100.00
14818;BME280;7500;57.698;11.986;2023-02-12T09:55:28;103157.94;;;9.28;100.00
14818;BME280;7500;57.698;11.986;2023-02-12T09:57:56;103174.56;;;9.36;100.00
14818;BME280;7500;57.698;11.986;2023-02-12T10:00:24;103168.38;;;9.41;100.00
14818;BME280;7500;57.698;11.986;2023-02-12T10:02:56;103132.50;;;9.21;100.00
14818;BME280;7500;57.698;11.986;2023-02-12T10:05:28;103169.19;;;9.49;100.00
14818;BME280;7500;57.698;11.986;2023-02-12T10:08:16;103160.34;;;9.52;100.00
14818;BME280;7500;57.698;11.986;2023-02-12T10:10:51;103171.91;;;9.42;100.00
14818;BME280;7500;57.698;11.986;2023-02-12T10:13:27;103171.00;;;9.43;100.00
14818;BME280;7500;57.698;11.986;2023-02-12T10:16:00;103171.09;;;9.31;100.00
14818;BME280;7500;57.698;11.986;2023-02-12T10:18:42;103176.38;;;9.31;100.00
14818;BME280;7500;57.698;11.986;2023-02-12T10:21:26;103176.31;;;9.35;100.00
14818;BME280;7500;57.698;11.986;2023-02-12T10:24:13;103170.16;;;9.41;100.00
14818;BME280;7500;57.698;11.986;2023-02-12T10:26:46;103174.53;;;9.40;100.00
14818;BME280;7500;57.698;11.986;2023-02-12T10:29:16;103164.88;;;9.36;100.00
14818;BME280;7500;57.698;11.986;2023-02-12T10:31:48;103165.81;;;9.34;100.00
14818;BME280;7500;57.698;11.986;2023-02-12T10:34:19;103150.97;;;9.22;100.00
14818;BME280;7500;57.698;11.986;2023-02-12T10:36:48;103152.66;;;9.31;100.00
14818;BME280;7500;57.698;11.986;2023-02-12T10:39:22;103123.78;;;9.16;100.00
14818;BME280;7500;57.698;11.986;2023-02-12T10:41:54;103159.66;;;9.35;100.00
14818;BME280;7500;57.698;11.986;2023-02-12T10:44:22;103162.31;;;9.33;100.00
14818;BME280;7500;57.698;11.986;2023-02-12T10:46:49;103165.75;;;9.38;100.00
14818;BME280;7500;57.698;11.986;2023-02-12T10:49:17;103163.06;;;9.49;100.00
14818;BME280;7500;57.698;11.986;2023-02-12T10:52:06;103163.06;;;9.49;100.00
14818;BME280;7500;57.698;11.986;2023-02-12T10:54:40;103167.34;;;9.59;100.00
14818;BME280;7500;57.698;11.986;2023-02-12T10:57:17;103167.31;;;9.63;100.00
14818;BME280;7500;57.698;11.986;2023-02-12T10:59:47;103169.03;;;9.67;100.00
14818;BME280;7500;57.698;11.986;2023-02-12T11:02:20;103162.81;;;9.73;100.00
14818;BME280;7500;57.698;11.986;2023-02-12T11:04:48;103164.56;;;9.74;100.00
14818;BME280;7500;57.698;11.986;2023-02-12T11:07:15;103158.41;;;9.73;100.00
14818;BME280;7500;57.698;11.986;2023-02-12T11:09:46;103162.81;;;9.73;100.00
14818;BME280;7500;57.698;11.986;2023-02-12T11:12:25;103162.78;;;9.79;100.00
14818;BME280;7500;57.698;11.986;2023-02-12T11:14:57;103144.31;;;9.77;100.00
14818;BME280;7500;57.698;11.986;2023-02-12T11:17:26;103159.16;;;9.86;100.00
14818;BME280;7500;57.698;11.986;2023-02-12T11:20:07;103150.38;;;9.85;100.00
14818;BME280;7500;57.698;11.986;2023-02-12T11:22:49;103153.81;;;9.93;100.00
14818;BME280;7500;57.698;11.986;2023-02-12T11:25:19;103125.84;;;9.79;100.00
14818;BME280;7500;57.698;11.986;2023-02-12T11:28:05;103158.22;;;9.94;100.00
14818;BME280;7500;57.698;11.986;2023-02-12T11:30:32;103156.44;;;9.96;100.00
14818;BME280;7500;57.698;11.986;2023-02-12T11:33:18;103148.47;;;10.01;100.00
14818;BME280;7500;57.698;11.986;2023-02-12T11:35:49;103154.56;;;10.09;100.00
14818;BME280;7500;57.698;11.986;2023-02-12T11:38:22;103151.13;;;10.02;100.00
14818;BME280;7500;57.698;11.986;2023-02-12T11:40:54;103160.72;;;10.08;100.00
14818;BME280;7500;57.698;11.986;2023-02-12T11:43:21;103158.06;;;10.09;100.00
14818;BME280;7500;57.698;11.986;2023-02-12T11:45:51;103152.84;;;10.03;100.00
14818;BME280;7500;57.698;11.986;2023-02-12T11:48:23;103156.34;;;10.05;100.00
14818;BME280;7500;57.698;11.986;2023-02-12T11:50:52;103153.66;;;10.08;100.00
14818;BME280;7500;57.698;11.986;2023-02-12T11:53:22;103152.78;;;10.09;100.00
14818;BME280;7500;57.698;11.986;2023-02-12T11:55:56;103130.06;;;9.93;100.00
14818;BME280;7500;57.698;11.986;2023-02-12T11:58:26;103157.13;;;10.14;100.00
14818;BME280;7500;57.698;11.986;2023-02-12T12:00:58;103158.03;;;10.13;100.00
14818;BME280;7500;57.698;11.986;2023-02-12T12:03:29;103147.47;;;10.12;100.00
14818;BME280;7500;57.698;11.986;2023-02-12T12:06:04;103141.31;;;10.12;100.00
14818;BME280;7500;57.698;11.986;2023-02-12T12:08:37;103141.31;;;10.12;100.00
14818;BME280;7500;57.698;11.986;2023-02-12T12:11:12;103141.28;;;10.14;100.00
14818;BME280;7500;57.698;11.986;2023-02-12T12:13:45;103136.13;;;10.06;100.00
14818;BME280;7500;57.698;11.986;2023-02-12T12:16:19;103147.50;;;10.09;100.00
14818;BME280;7500;57.698;11.986;2023-02-12T12:19:10;103131.69;;;10.06;100.00
14818;BME280;7500;57.698;11.986;2023-02-12T12:22:02;103145.75;;;10.10;100.00
14818;BME280;7500;57.698;11.986;2023-02-12T12:24:37;103139.56;;;10.09;100.00
14818;BME280;7500;57.698;11.986;2023-02-12T12:27:14;103142.19;;;10.12;100.00
14818;BME280;7500;57.698;11.986;2023-02-12T12:30:17;103144.81;;;10.13;100.00
14818;BME280;7500;57.698;11.986;2023-02-12T12:32:46;103149.25;;;10.12;100.00
14818;BME280;7500;57.698;11.986;2023-02-12T12:35:17;103143.97;;;10.10;100.00
14818;BME280;7500;57.698;11.986;2023-02-12T12:37:53;103149.19;;;10.17;100.00
14818;BME280;7500;57.698;11.986;2023-02-12T12:40:36;103149.97;;;10.22;100.00
14818;BME280;7500;57.698;11.986;2023-02-12T12:43:13;103149.97;;;10.22;100.00
14818;BME280;7500;57.698;11.986;2023-02-12T12:46:24;103154.41;;;10.22;100.00
14818;BME280;7500;57.698;11.986;2023-02-12T12:49:21;103149.22;;;10.14;100.00
14818;BME280;7500;57.698;11.986;2023-02-12T12:52:09;103151.88;;;10.10;100.00
14818;BME280;7500;57.698;11.986;2023-02-12T12:54:57;103144.03;;;10.06;100.00
14818;BME280;7500;57.698;11.986;2023-02-12T12:57:44;103158.03;;;10.12;100.00
14818;BME280;7500;57.698;11.986;2023-02-12T13:00:35;103157.13;;;10.13;100.00
14818;BME280;7500;57.698;11.986;2023-02-12T13:03:39;103154.53;;;10.10;100.00
14818;BME280;7500;57.698;11.986;2023-02-12T13:06:26;103141.31;;;10.10;100.00
14818;BME280;7500;57.698;11.986;2023-02-12T13:09:19;103156.19;;;10.20;100.00
14818;BME280;7500;57.698;11.986;2023-02-12T13:12:00;103156.16;;;10.23;100.00
14818;BME280;7500;57.698;11.986;2023-02-12T13:14:38;103149.06;;;10.28;100.00
14818;BME280;7500;57.698;11.986;2023-02-12T13:17:22;103148.09;;;10.33;100.00
14818;BME280;7500;57.698;11.986;2023-02-12T13:19:59;103154.25;;;10.34;100.00